Flight Track Log - Related Links

Times and Time Zones

All times are in EDT time to prevent confusion due to time zone crossing. See the EJA982 flight status page for this flight to view local times or setup timezone preferences in your user account.

Time Position Orientation Groundspeed Altitude Reporting Facility
EDT Latitude Longitude Course Direction KTS km/h feet Rate Location/Type
Sun 13:35:58 34.0572 -117.6367 275° West 188 348 2.800  Level Los Angeles Center
Sun 13:37:00 34.0631 -117.7117 275° West 218 404 6.400 2.032 Climbing Los Angeles Center
Sun 13:38:02 34.0853 -117.7989 287° West 260 481 7.000 1.935 Climbing Los Angeles Center
Sun 13:39:04 34.1389 -117.8736 311° West 291 539 10.400 2.855 Climbing Los Angeles Center
Sun 13:40:06 34.1936 -117.9542 309° West 310 575 12.900 3.097 Climbing Los Angeles Center
Sun 13:41:08 34.2700 -118.0678 309° West 362 671 16.800 2.758 Climbing Los Angeles Center
Sun 13:42:10 34.3353 -118.1633 310° West 369 684 18.600 1.694 Climbing Los Angeles Center
Sun 13:43:12 34.4039 -118.2647 309° West 388 719 20.300 1.544 Climbing Los Angeles Center
Sun 13:44:26 34.4731 -118.3681 309° West 395 732 22.100 1.664 Climbing Los Angeles Center
Sun 13:45:29 34.5644 -118.4842 314° West 400 740 24.100 1.920 Climbing Los Angeles Center
Sun 13:46:31 34.6967 -118.5358 342° North 416 771 26.100 1.694 Climbing Los Angeles Center
Sun 13:47:33 34.8114 -118.5703 346° North 422 782 27.600 1.452 Climbing Los Angeles Center
Sun 13:48:35 34.9192 -118.6064 345° North 434 803 29.100 1.548 Climbing Los Angeles Center
Sun 13:49:37 35.0653 -118.6517 346° North 450 834 30.800 1.548 Climbing Los Angeles Center
Sun 13:50:39 35.1869 -118.6908 345° North 452 837 32.300 2.208 Climbing Los Angeles Center
Sun 13:51:42 35.3131 -118.7278 347° North 463 858 35.400 2.400 Climbing Los Angeles Center
Sun 13:52:44 35.4294 -118.7647 345° North 447 827 37.300 1.694 Climbing Los Angeles Center
Sun 13:53:46 35.5414 -118.8025 345° North 431 798 38.900 1.588 Climbing Los Angeles Center
Sun 13:54:26 35.6350 -118.8322 346° North 434 803 40.000 653 Climbing Oakland Center
Sun 13:55:27 35.7539 -118.8689 346° North 438 811 40.000  Level Oakland Center
Sun 13:56:29 35.8808 -118.9100 345° North 460 851 40.000  Level Oakland Center
Sun 13:57:30 36.0114 -118.9528 345° North 477 884 40.000  Level Oakland Center
Sun 13:58:32 36.1422 -118.9950 345° North 485 898 40.000  Level Oakland Center
Sun 13:59:33 36.2731 -119.0364 346° North 487 901 40.000  Level Oakland Center
Sun 14:00:35 36.4075 -119.0803 345° North 495 917 40.000  Level Oakland Center
Sun 14:01:37 36.5642 -119.1319 345° North 487 901 40.000  Level Oakland Center
Sun 14:02:38 36.6961 -119.1744 346° North 492 911 40.000  Level Oakland Center
Sun 14:03:40 36.8281 -119.2192 345° North 493 912 40.000  Level Oakland Center
Sun 14:04:41 36.9597 -119.2631 345° North 495 917 40.000  Level Oakland Center
Sun 14:05:43 37.0919 -119.3092 344° North 499 924 40.000  Level Oakland Center
Sun 14:06:44 37.2256 -119.3519 346° North 502 930 40.000  Level Oakland Center
Sun 14:07:46 37.3567 -119.3956 345° North 499 924 40.000  Level Oakland Center
Sun 14:08:47 37.5142 -119.4464 346° North 489 906 40.000  Level Oakland Center
Sun 14:09:49 37.6425 -119.4883 345° North 480 888 40.000  Level Oakland Center
Sun 14:10:51 37.7703 -119.5311 345° North 478 885 40.000  Level Oakland Center
Sun 14:11:52 37.8997 -119.5761 345° North 482 893 40.000  Level Oakland Center
Sun 14:12:54 38.0314 -119.6178 346° North 486 900 40.000  Level Oakland Center
Sun 14:13:55 38.1592 -119.6631 344° North 483 895 40.000  Level Oakland Center
Sun 14:14:57 38.2900 -119.7081 345° North 484 896 40.000  Level Oakland Center
Sun 14:15:59 38.4458 -119.7614 345° North 485 898 40.000  Level Oakland Center
Sun 14:17:00 38.5756 -119.8081 344° North 484 896 40.000  Level Oakland Center
Sun 14:18:02 38.7083 -119.8531 345° North 491 909 40.000  Level Oakland Center
Sun 14:19:03 38.8381 -119.8981 345° North 487 901 40.000  Level Oakland Center
Sun 14:20:05 38.9714 -119.9464 344° North 486 900 40.000  Level Oakland Center
Sun 14:21:07 39.1014 -119.9917 345° North 483 895 40.000 488 Level Oakland Center
Sun 14:22:08 39.2314 -120.0375 345° North 482 893 41.000 976 Climbing Oakland Center
Sun 14:23:10 39.3553 -120.0814 345° North 472 874 42.000 968 Climbing Oakland Center
Sun 14:24:12 39.4931 -120.1297 345° North 459 850 43.000 488 Climbing Oakland Center
Sun 14:25:13 39.6119 -120.1714 345° North 448 830 43.000  Level Oakland Center
Sun 14:26:15 39.7358 -120.2164 344° North 457 847 43.000  Level Oakland Center
Sun 14:27:17 39.8592 -120.2611 344° North 461 855 43.000  Level Oakland Center
Sun 14:28:18 39.9839 -120.3058 345° North 464 859 43.000  Level Oakland Center
Sun 14:29:20 40.1186 -120.3544 345° North 466 863 43.000  Level Oakland Center
Sun 14:30:21 40.2439 -120.4006 344° North 466 863 43.000  Level Oakland Center
Sun 14:31:23 40.3686 -120.4447 345° North 464 859 43.000  Level Oakland Center
Sun 14:32:25 40.5094 -120.4961 344° North 465 861 43.000  Level Oakland Center
Sun 14:33:26 40.6433 -120.5444 345° North 471 872 43.000  Level Oakland Center
Sun 14:34:28 40.7664 -120.5911 344° North 466 863 43.000  Level Oakland Center
Sun 14:35:30 40.8886 -120.6367 344° North 461 855 43.000  Level Oakland Center
Sun 14:36:31 41.0117 -120.6819 344° North 461 855 43.000  Level Oakland Center
Sun 14:37:33 41.1369 -120.7289 344° North 468 867 43.000  Level Oakland Center
Sun 14:38:35 41.2594 -120.7756 344° North 462 856 43.000  Level Oakland Center
Sun 14:39:41 41.4067 -120.8319 344° North 461 855 43.000  Level Seattle Center
Sun 14:40:42 41.5281 -120.8781 344° North 457 847 43.000  Level Seattle Center
Sun 14:41:43 41.6503 -120.9253 344° North 457 847 43.000  Level Seattle Center
Sun 14:42:44 41.7731 -120.9711 344° North 458 848 43.000  Level Seattle Center
Sun 14:43:45 41.8953 -121.0186 344° North 460 851 43.000  Level Seattle Center
Sun 14:44:45 42.0175 -121.0650 344° North 459 850 43.000  Level Seattle Center
Sun 14:45:46 42.1419 -121.1125 344° North 465 861 43.000  Level Seattle Center
Sun 14:46:47 42.2653 -121.1597 344° North 467 864 43.000  Level Seattle Center
Sun 14:47:48 42.4133 -121.2172 344° North 466 863 43.000  Level Seattle Center
Sun 14:48:49 42.5347 -121.2633 344° North 456 845 43.000  Level Seattle Center
Sun 14:49:50 42.6575 -121.3122 344° North 461 855 43.000  Level Seattle Center
Sun 14:50:51 42.7808 -121.3589 344° North 461 855 43.000  Level Seattle Center
Sun 14:51:52 42.9042 -121.4106 343° North 463 858 43.000  Level Seattle Center
Sun 14:52:53 43.0233 -121.4572 344° North 448 830 43.000  Level Seattle Center
Sun 14:53:54 43.1403 -121.5033 344° North 441 816 43.000  Level Seattle Center
Sun 14:54:55 43.2592 -121.5500 344° North 443 821 43.000  Level Seattle Center
Sun 14:55:56 43.3775 -121.5989 343° North 445 824 43.000  Level Seattle Center
Sun 14:56:57 43.4981 -121.6475 344° North 449 832 43.000  Level Seattle Center
Sun 14:57:58 43.6189 -121.6964 344° North 452 837 43.000  Level Seattle Center
Sun 14:58:59 43.7372 -121.7458 343° North 446 826 43.000  Level Seattle Center
Sun 15:00:00 43.8644 -121.7942 345° North 449 832 43.000  Level Seattle Center
Sun 15:01:01 43.9844 -121.8428 344° North 449 832 43.000  Level Seattle Center
Sun 15:02:02 44.1144 -121.8964 344° North 456 845 43.000  Level Seattle Center
Sun 15:03:03 44.2328 -121.9447 344° North 447 827 43.000  Level Seattle Center
Sun 15:04:04 44.3497 -121.9928 344° North 439 813 43.000  Level Seattle Center
Sun 15:05:05 44.4689 -122.0428 343° North 446 826 43.000  Level Seattle Center
Sun 15:06:06 44.6128 -122.1036 343° North 451 835 43.000  Level Seattle Center
Sun 15:07:07 44.7328 -122.1542 343° North 452 837 43.000  Level Seattle Center
Sun 15:08:08 44.8506 -122.2039 343° North 446 826 43.000  Level Seattle Center
Sun 15:09:09 44.9567 -122.2497 343° North 446 826 43.000  Level Seattle Center
Sun 15:10:10 45.0750 -122.3011 343° North 448 830 43.000  Level Seattle Center
Sun 15:11:11 45.2169 -122.3611 343° North 445 824 43.000 -295 Level Seattle Center
Sun 15:12:12 45.3336 -122.4106 343° North 442 819 42.400 -787 Descending Seattle Center
Sun 15:13:13 45.4558 -122.4631 343° North 456 845 41.400 -885 Descending Seattle Center
Sun 15:14:14 45.5819 -122.5172 343° North 473 875 40.600 -738 Descending Seattle Center
Sun 15:15:15 45.7064 -122.5725 343° North 472 874 39.900 -934 Descending Seattle Center
Sun 15:16:16 45.8250 -122.6092 348° North 438 811 38.700 -1.525 Descending Seattle Center
Sun 15:17:17 45.9331 -122.6378 350° North 403 747 36.800 -1.770 Descending Seattle Center
Sun 15:18:18 46.0269 -122.6628 350° North 348 644 35.100 -1.672 Descending Seattle Center
Sun 15:19:19 46.1164 -122.6831 351° North 329 610 33.400 -1.770 Descending Seattle Center
Sun 15:20:20 46.2169 -122.7106 349° North 316 586 31.500 -1.918 Descending Seattle Center
Sun 15:21:21 46.3069 -122.7314 351° North 328 607 29.500 -1.869 Descending Seattle Center
Sun 15:22:22 46.4022 -122.7272 North 344 637 27.700 -1.770 Descending Seattle Center
Sun 15:23:23 46.4975 -122.7072 North 348 644 25.900 -1.770 Descending Seattle Center
Sun 15:24:24 46.5906 -122.6931 North 342 634 24.100 -1.935 Descending Seattle Center
Sun 15:24:56 46.6433 -122.6819 North 314 581 22.900 -1.770 Descending Seattle Center
Sun 15:25:25 46.6750 -122.6772 North 317 587 22.300 -1.745 Descending Seattle Center
Sun 15:25:51 46.7181 -122.6708 North 295 546 21.300 -1.574 Descending Seattle Center
Sun 15:26:26 46.7533 -122.6636 North 292 541 20.700 -1.475 Descending Seattle Center
Sun 15:26:52 46.7989 -122.6567 North 288 533 19.800 -1.475 Descending Seattle Center
Sun 15:27:27 46.8336 -122.6500 North 291 539 19.200 -1.522 Descending Seattle Center
Sun 15:27:59 46.8919 -122.6389 North 296 549 18.100 -1.770 Descending Seattle Center
Sun 15:28:28 46.9303 -122.6319 North 295 546 17.400 -1.475 Descending Seattle Center
Sun 15:29:00 46.9708 -122.6256 North 287 531 16.600 -1.377 Descending Seattle Center
Sun 15:29:29 47.0078 -122.6189 North 283 525 16.000 -1.377 Descending Seattle Center
Sun 15:30:01 47.0475 -122.6133 North 277 513 15.200 -1.377 Descending Seattle Center
Sun 15:30:30 47.0836 -122.6058 North 278 515 14.600 -1.400 Descending Seattle Center
Sun 15:31:01 47.1264 -122.6000 North 282 523 13.800 -1.475 Descending Seattle Center
Sun 15:31:31 47.1622 -122.5919 North 288 533 13.100 -1.475 Descending Seattle Center
Sun 15:32:02 47.2044 -122.5836 North 287 531 12.300 -1.082 Descending Seattle Center
Sun 15:32:32 47.2367 -122.5633 23° Northeast 285 528 12.000 -1.082 Descending Seattle Center
Sun 15:33:03 47.2753 -122.5125 42° Northeast 298 552 11.200 -1.475 Descending Seattle Center
Sun 15:33:33 47.2978 -122.4842 40° Northeast 296 549 10.500 -1.770 Descending Seattle Center
Sun 15:34:04 47.3419 -122.4597 21° North 274 507 9.400 -1.800 Descending Seattle Center
Sun 15:34:33 47.3675 -122.4578 North 268 496 8.700 -1.881 Descending Seattle Center
Sun 15:35:11 47.4217 -122.4586 359° North 256 475 7.300 -1.770 Descending Seattle Center
Sun 15:35:34 47.4394 -122.4567 North 261 483 6.900 -1.672 Descending Seattle Center
Sun 15:36:12 47.4947 -122.4578 359° North 260 481 5.600 -1.770 Descending Seattle Center
Sun 15:36:35 47.5114 -122.4586 358° North 260 481 5.100 -1.347 Descending Seattle Center
Sun 15:37:01 47.5542 -122.4647 354° North 251 465 4.500 -1.279 Descending Seattle Center
Sun 15:37:36 47.5858 -122.4897 332° Northwest 217 402 3.800 -984 Descending Seattle Center
Sun 15:38:02 47.6025 -122.5069 325° Northwest 188 348 3.500 -885 Descending Seattle Center
Sun 15:38:37 47.6292 -122.5275 333° Northwest 182 336 2.900 -900 Descending Seattle Center
Sun 15:39:02 47.6458 -122.5292 356° North 167 309 2.600 -689 Descending Seattle Center
Sun 15:39:38 47.6608 -122.4936 58° Northeast 167 309 2.200 -393 Descending Seattle Center
Sun 15:40:03 47.6736 -122.4711 50° Northeast 170 315 2.200  Level Seattle Center
Sun 15:40:39 47.6675 -122.4328 103° East 173 320 2.200  Level Seattle Center
Sun 15:41:10 47.6503 -122.4053 133° Southeast 170 315 2.200 -98 Level Seattle Center
Sun 15:41:40 47.6314 -122.3894 151° Southeast 170 315 2.100 -492 Descending Seattle Center
Sun 15:42:11 47.6106 -122.3711 149° Southeast 167 309 1.700 -689 Descending Seattle Center
Sun 15:42:41 47.5944 -122.3575 150° Southeast 154 285 1.400 -787 Descending Seattle Center
Sun 15:43:12 47.5789 -122.3425 147° Southeast 134 248 900 -885 Descending Seattle Center
Sun 15:43:42 47.5603 -122.3289 154° Southeast 134 248 500 -689 Descending Seattle Center
Sun 15:44:13 47.5481 -122.3169 147° Southeast 146 270 200 -581 Descending Seattle Center

Login

Don't have an account? Register now (free) for customized features, flight alerts, and more!